Time;durP1;ratioP1;P1;durP2;ratioP2;P2;SDS_P1;SDS_P2;PMS_P1;PMS_P2;Temp;Humidity;BMP_temperature;BMP_pressure;BME280_temperature;BME280_humidity;BME280_pressure;Samples;Min_cycle;Max_cycle;Signal;HPM_P1;HPM_P2
2023/05/11 00:01:23;;;;;;;5.13;3.70;;;;;;;13.61;100.00;98931.94;4935885;28;20672;-79
2023/05/11 00:03:52;;;;;;;4.43;4.03;;;;;;;13.50;100.00;98930.09;4970111;28;20208;-78
2023/05/11 00:06:20;;;;;;;8.10;4.00;;;;;;;13.41;100.00;98928.19;4968507;28;20204;-80
2023/05/11 00:08:49;;;;;;;5.30;3.40;;;;;;;13.40;100.00;98924.66;4971658;28;20634;-80
2023/05/11 00:11:18;;;;;;;4.63;3.00;;;;;;;13.14;100.00;98921.41;4971111;28;20206;-80
2023/05/11 00:13:47;;;;;;;4.47;2.87;;;;;;;13.29;100.00;98924.69;4965923;28;20263;-79
2023/05/11 00:16:18;;;;;;;4.40;3.17;;;;;;;13.30;100.00;98933.50;4969680;28;20191;-79
2023/05/11 00:18:48;;;;;;;5.13;4.10;;;;;;;13.31;100.00;98924.56;4971023;28;20200;-79
2023/05/11 00:21:17;;;;;;;13.03;4.77;;;;;;;13.14;100.00;98924.06;4968741;28;20196;-79
2023/05/11 00:23:46;;;;;;;4.73;3.53;;;;;;;13.21;100.00;98926.25;4936393;28;20195;-79
2023/05/11 00:26:16;;;;;;;95.23;7.83;;;;;;;12.89;100.00;98919.78;4968945;28;20216;-80
2023/05/11 00:28:45;;;;;;;31.80;5.47;;;;;;;12.96;100.00;98932.63;4971231;28;20210;-79
2023/05/11 00:31:13;;;;;;;30.87;4.30;;;;;;;12.63;100.00;98931.56;4972706;28;20203;-79
2023/05/11 00:33:44;;;;;;;21.90;4.10;;;;;;;12.63;100.00;98938.69;4968991;28;20203;-80
2023/05/11 00:36:13;;;;;;;46.27;4.43;;;;;;;12.31;100.00;98936.66;4966710;28;20198;-79
2023/05/11 00:38:43;;;;;;;22.83;4.20;;;;;;;12.36;100.00;98931.88;4969982;28;20298;-79
2023/05/11 00:41:12;;;;;;;13.43;3.37;;;;;;;12.35;100.00;98932.78;4914505;29;20198;-80
2023/05/11 00:43:41;;;;;;;7.80;3.23;;;;;;;12.50;100.00;98929.00;4909909;29;20190;-80
2023/05/11 00:46:11;;;;;;;6.53;3.13;;;;;;;12.52;100.00;98931.53;4908057;29;20212;-79
2023/05/11 00:48:40;;;;;;;4.63;2.90;;;;;;;12.59;100.00;98932.78;4908224;29;20333;-79
2023/05/11 00:51:11;;;;;;;3.10;2.70;;;;;;;12.71;100.00;98918.53;4912148;29;20201;-79
2023/05/11 00:53:40;;;;;;;3.40;2.90;;;;;;;12.80;100.00;98931.13;4909260;29;20389;-79
2023/05/11 00:56:09;;;;;;;3.27;2.97;;;;;;;12.81;100.00;98926.66;4908183;29;20209;-79
2023/05/11 00:58:38;;;;;;;3.40;3.10;;;;;;;12.75;100.00;98928.00;4913263;29;20312;-79
2023/05/11 01:01:07;;;;;;;4.27;2.83;;;;;;;12.84;100.00;98927.28;4911843;29;20208;-79
2023/05/11 01:03:38;;;;;;;3.10;2.80;;;;;;;12.93;100.00;98919.53;4909634;29;20320;-79
2023/05/11 01:06:16;;;;;;;4.00;3.60;;;;;;;12.95;100.00;98918.47;4947629;28;20192;-80
2023/05/11 01:08:51;;;;;;;3.13;2.80;;;;;;;12.99;100.00;98916.41;4971724;28;20207;-79
2023/05/11 01:11:28;;;;;;;4.73;2.60;;;;;;;12.75;100.00;98912.03;4964736;28;20274;-78
2023/05/11 01:14:04;;;;;;;4.27;2.87;;;;;;;12.81;100.00;98921.34;4973783;28;20711;-79
2023/05/11 01:16:38;;;;;;;2.87;2.67;;;;;;;12.69;100.00;98914.31;4965275;28;20203;-80
2023/05/11 01:19:18;;;;;;;2.97;2.60;;;;;;;12.79;100.00;98912.66;4969506;28;20287;-79
2023/05/11 01:21:51;;;;;;;2.50;2.30;;;;;;;12.71;100.00;98907.91;4969777;28;20210;-79
2023/05/11 01:24:40;;;;;;;4.77;3.07;;;;;;;12.79;100.00;98907.34;4969886;28;20225;-80
2023/05/11 01:27:33;;;;;;;4.37;2.93;;;;;;;12.86;100.00;98906.75;4969825;28;20231;-79
2023/05/11 01:30:25;;;;;;;4.87;2.43;;;;;;;12.80;100.00;98903.69;4967996;28;20199;-80
2023/05/11 01:32:59;;;;;;;3.47;2.80;;;;;;;12.79;100.00;98897.53;4970799;28;20196;-80
2023/05/11 01:35:32;;;;;;;5.87;2.70;;;;;;;12.81;100.00;98900.06;4967848;28;20215;-79
2023/05/11 01:38:03;;;;;;;5.03;2.90;;;;;;;12.63;100.00;98905.00;4969291;28;20216;-79
2023/05/11 01:40:35;;;;;;;4.30;2.80;;;;;;;12.71;100.00;98899.94;4968344;28;20255;-80
2023/05/11 01:43:08;;;;;;;3.13;2.57;;;;;;;12.78;100.00;98901.16;4965466;28;20198;-79
2023/05/11 01:45:45;;;;;;;3.70;2.93;;;;;;;12.63;100.00;98902.34;4972876;28;20649;-79
2023/05/11 01:48:23;;;;;;;4.77;3.00;;;;;;;12.71;100.00;98897.28;4966522;28;20199;-79
2023/05/11 01:50:56;;;;;;;6.43;4.50;;;;;;;12.47;100.00;98893.88;4889666;29;20201;-79
2023/05/11 01:53:28;;;;;;;6.57;5.50;;;;;;;12.64;100.00;98903.19;4890326;29;20209;-80
2023/05/11 01:55:59;;;;;;;17.70;6.77;;;;;;;12.52;100.00;98899.66;4890281;29;20194;-79
2023/05/11 01:58:29;;;;;;;23.43;6.90;;;;;;;12.55;100.00;98905.59;4884715;29;20304;-80
2023/05/11 02:01:02;;;;;;;10.60;7.20;;;;;;;12.46;100.00;98908.97;4890433;29;20258;-80
2023/05/11 02:03:36;;;;;;;22.50;7.77;;;;;;;12.53;100.00;98907.50;4891020;29;20337;-79
2023/05/11 02:06:07;;;;;;;15.50;7.03;;;;;;;12.51;100.00;98909.44;4886934;29;20218;-80
2023/05/11 02:08:38;;;;;;;30.13;8.27;;;;;;;12.39;100.00;98913.03;4897833;29;20207;-80
2023/05/11 02:11:09;;;;;;;15.43;7.47;;;;;;;12.53;100.00;98911.97;4946407;29;20193;-79
2023/05/11 02:13:43;;;;;;;34.77;8.87;;;;;;;12.49;100.00;98908.72;4944454;29;20204;-80
2023/05/11 02:16:16;;;;;;;21.43;8.00;;;;;;;12.37;100.00;98914.97;4949463;29;20200;-80
2023/05/11 02:18:49;;;;;;;28.30;7.97;;;;;;;12.22;100.00;98921.41;4945507;29;20224;-77
2023/05/11 02:21:19;;;;;;;23.33;7.63;;;;;;;12.43;100.00;98919.78;4946387;29;20205;-81
2023/05/11 02:23:53;;;;;;;23.80;9.37;;;;;;;12.49;100.00;98921.16;4951468;29;20208;-78
2023/05/11 02:26:23;;;;;;;39.90;9.60;;;;;;;12.40;100.00;98919.19;4958070;29;20291;-79
2023/05/11 02:28:53;;;;;;;25.93;8.50;;;;;;;12.44;100.00;98918.81;4957233;29;20292;-79
2023/05/11 02:31:29;;;;;;;56.67;11.13;;;;;;;12.38;100.00;98921.13;4956539;29;20268;-78
2023/05/11 02:34:04;;;;;;;53.53;11.50;;;;;;;12.44;100.00;98923.28;4971494;28;20203;-78
2023/05/11 02:36:38;;;;;;;91.47;12.03;;;;;;;12.37;100.00;98914.13;4983411;28;20192;-78
2023/05/11 02:39:11;;;;;;;48.77;11.03;;;;;;;12.42;100.00;98917.25;4980397;28;20226;-78
2023/05/11 02:41:46;;;;;;;56.13;11.40;;;;;;;12.35;100.00;98919.50;4987409;28;20188;-78
2023/05/11 02:44:17;;;;;;;50.27;11.63;;;;;;;12.36;100.00;98921.25;4983716;28;20206;-78
2023/05/11 02:46:50;;;;;;;36.93;10.57;;;;;;;12.37;100.00;98917.63;4976751;28;20283;-78
2023/05/11 02:49:22;;;;;;;30.90;10.63;;;;;;;12.40;100.00;98924.50;4979013;28;20208;-78
2023/05/11 02:51:55;;;;;;;47.17;11.10;;;;;;;12.32;100.00;98919.75;4974245;28;20283;-78
2023/05/11 02:54:25;;;;;;;22.93;10.30;;;;;;;12.28;100.00;98924.47;4972465;28;20218;-78
2023/05/11 02:56:56;;;;;;;21.73;9.57;;;;;;;12.24;100.00;98928.28;4972015;28;20203;-78
2023/05/11 02:59:26;;;;;;;30.37;9.40;;;;;;;12.19;100.00;98927.81;4974931;28;20255;-78
2023/05/11 03:01:58;;;;;;;22.37;9.23;;;;;;;12.26;100.00;98929.03;4969484;28;20223;-78
2023/05/11 03:04:28;;;;;;;32.37;10.37;;;;;;;12.30;100.00;98924.34;4974848;28;20227;-77
2023/05/11 03:06:56;;;;;;;23.33;10.10;;;;;;;12.06;100.00;98926.16;4975825;28;20669;-78
2023/05/11 03:09:25;;;;;;;37.47;10.53;;;;;;;12.01;100.00;98930.00;4972854;28;20719;-78
2023/05/11 03:11:57;;;;;;;38.23;11.87;;;;;;;12.06;100.00;98928.81;4971111;28;20207;-78
2023/05/11 03:14:26;;;;;;;36.63;11.80;;;;;;;11.97;100.00;98928.56;4967671;28;20303;-78
2023/05/11 03:16:59;;;;;;;34.57;10.20;;;;;;;12.07;100.00;98934.03;4948851;29;20201;-78
2023/05/11 03:19:29;;;;;;;39.57;11.57;;;;;;;12.10;100.00;98938.25;4948020;29;20362;-78
2023/05/11 03:22:00;;;;;;;30.67;10.63;;;;;;;12.11;100.00;98939.94;4953120;28;20232;-78
2023/05/11 03:24:31;;;;;;;71.63;12.67;;;;;;;12.05;100.00;98938.56;4948384;29;20275;-78
2023/05/11 03:27:04;;;;;;;63.63;12.87;;;;;;;12.09;100.00;98931.25;4951641;29;20192;-78
2023/05/11 03:29:37;;;;;;;51.93;11.20;;;;;;;12.15;100.00;98928.13;4948129;29;20219;-78
2023/05/11 03:32:09;;;;;;;57.03;12.00;;;;;;;12.23;100.00;98934.56;4931217;29;20201;-78
2023/05/11 03:34:38;;;;;;;56.23;12.13;;;;;;;12.16;100.00;98928.03;4933695;29;20216;-78
2023/05/11 03:37:10;;;;;;;47.13;12.23;;;;;;;12.22;100.00;98924.06;4946098;29;20215;-78
2023/05/11 03:39:42;;;;;;;115.90;14.60;;;;;;;12.09;100.00;98932.09;4951261;29;20243;-78
2023/05/11 03:42:15;;;;;;;34.03;13.03;;;;;;;12.16;100.00;98929.81;4953591;29;20241;-78
2023/05/11 03:44:46;;;;;;;131.30;16.43;;;;;;;12.12;100.00;98929.22;4946942;28;20192;-78
2023/05/11 03:47:19;;;;;;;58.73;13.30;;;;;;;12.18;100.00;98933.22;4948486;29;20323;-79
2023/05/11 03:49:50;;;;;;;98.07;14.53;;;;;;;12.17;100.00;98931.53;4949155;28;20682;-78
2023/05/11 03:52:20;;;;;;;35.13;13.00;;;;;;;12.20;100.00;98929.50;4971167;28;20207;-78
2023/05/11 03:54:50;;;;;;;220.43;19.67;;;;;;;11.80;100.00;98931.56;4947290;29;20208;-78
2023/05/11 03:57:19;;;;;;;208.67;19.70;;;;;;;11.52;100.00;98923.88;4952947;29;20247;-78
2023/05/11 03:59:48;;;;;;;65.20;13.03;;;;;;;11.64;100.00;98926.50;4948368;29;20248;-78
2023/05/11 04:02:23;;;;;;;93.03;15.37;;;;;;;11.62;100.00;98927.56;4949189;29;20307;-78
2023/05/11 04:04:52;;;;;;;156.30;17.03;;;;;;;11.31;100.00;98932.41;4949593;29;20211;-78
2023/05/11 04:07:21;;;;;;;110.60;15.90;;;;;;;11.38;100.00;98940.75;4949206;29;20279;-78
2023/05/11 04:09:50;;;;;;;27.10;14.13;;;;;;;11.60;100.00;98940.09;4948516;29;20683;-78
2023/05/11 04:12:20;;;;;;;67.63;15.23;;;;;;;11.60;100.00;98945.41;4957297;28;20207;-78
2023/05/11 04:14:49;;;;;;;57.83;14.80;;;;;;;11.58;100.00;98948.19;4968780;28;20210;-79
2023/05/11 04:17:18;;;;;;;59.13;14.90;;;;;;;11.55;100.00;98948.38;4966224;28;20211;-79
2023/05/11 04:19:50;;;;;;;61.10;15.87;;;;;;;11.60;100.00;98954.22;4970040;28;20250;-78
2023/05/11 04:22:20;;;;;;;111.77;16.70;;;;;;;11.50;100.00;98953.16;4971455;28;20206;-78
2023/05/11 04:24:50;;;;;;;117.93;18.27;;;;;;;11.41;100.00;98959.13;4970806;28;20196;-77
2023/05/11 04:27:20;;;;;;;175.57;19.77;;;;;;;11.17;100.00;98962.53;4973564;28;20204;-78
2023/05/11 04:29:50;;;;;;;30.00;14.67;;;;;;;11.39;100.00;98969.00;4974411;28;20195;-78
2023/05/11 04:32:19;;;;;;;150.63;21.00;;;;;;;11.32;100.00;98971.22;4969040;28;20203;-78
2023/05/11 04:34:50;;;;;;;108.87;16.80;;;;;;;11.33;100.00;98972.06;4963889;28;20204;-79
2023/05/11 04:37:18;;;;;;;70.50;16.17;;;;;;;11.51;100.00;98976.09;4968682;28;20359;-78
2023/05/11 04:39:47;;;;;;;101.47;18.20;;;;;;;11.53;100.00;98982.13;4966112;28;20258;-78
2023/05/11 04:42:16;;;;;;;47.60;14.63;;;;;;;11.38;100.00;98981.38;4969399;28;20223;-78
2023/05/11 04:44:45;;;;;;;50.90;15.43;;;;;;;11.45;100.00;98982.66;4970039;28;20219;-78
2023/05/11 04:47:14;;;;;;;40.50;14.80;;;;;;;11.45;100.00;98979.16;4968888;28;20226;-78
2023/05/11 04:49:43;;;;;;;41.27;14.30;;;;;;;11.53;100.00;98979.47;4970177;28;20504;-78
2023/05/11 04:52:14;;;;;;;38.57;14.73;;;;;;;11.65;100.00;98983.03;4970895;28;20211;-78
2023/05/11 04:54:43;;;;;;;49.63;15.73;;;;;;;11.73;100.00;98988.66;4974497;28;20231;-78
2023/05/11 04:57:12;;;;;;;41.93;14.77;;;;;;;11.93;100.00;98995.22;4968593;28;20304;-78
2023/05/11 04:59:42;;;;;;;114.57;17.97;;;;;;;11.78;100.00;98988.34;4967829;28;20223;-78
2023/05/11 05:02:10;;;;;;;43.93;15.47;;;;;;;11.74;100.00;98987.69;4970798;28;20236;-78
2023/05/11 05:04:39;;;;;;;45.77;15.33;;;;;;;11.93;100.00;98996.06;4963794;28;20210;-78
2023/05/11 05:07:09;;;;;;;24.57;13.77;;;;;;;11.93;100.00;98993.41;4967558;28;20715;-78
2023/05/11 05:09:40;;;;;;;24.70;13.47;;;;;;;12.01;100.00;98987.56;4970983;28;20208;-78
2023/05/11 05:12:11;;;;;;;22.90;13.13;;;;;;;12.13;100.00;98989.31;4970729;28;20677;-78
2023/05/11 05:14:41;;;;;;;22.67;14.13;;;;;;;11.98;100.00;98985.13;4968674;28;20188;-79
2023/05/11 05:17:11;;;;;;;22.33;13.77;;;;;;;11.94;100.00;98987.16;4969051;28;20195;-79
2023/05/11 05:19:41;;;;;;;35.63;14.73;;;;;;;11.83;100.00;98995.03;4969888;28;20866;-78
2023/05/11 05:22:11;;;;;;;25.27;14.20;;;;;;;11.69;100.00;98995.16;4964033;28;20278;-79
2023/05/11 05:24:43;;;;;;;21.90;13.57;;;;;;;11.86;100.00;98992.16;4965941;28;20210;-79
2023/05/11 05:27:12;;;;;;;20.37;13.07;;;;;;;12.03;100.00;98996.25;4969748;28;20199;-79
2023/05/11 05:29:41;;;;;;;21.07;12.97;;;;;;;12.00;100.00;98999.97;4973250;28;20200;-78
2023/05/11 05:32:11;;;;;;;22.13;12.83;;;;;;;11.67;100.00;99002.34;4969672;28;20195;-78
2023/05/11 05:34:40;;;;;;;19.87;13.67;;;;;;;11.94;100.00;99004.88;4969271;28;20560;-78
2023/05/11 05:37:12;;;;;;;20.33;13.00;;;;;;;12.11;100.00;99009.81;4950087;28;20207;-77
2023/05/11 05:39:42;;;;;;;21.60;13.33;;;;;;;12.27;100.00;99009.56;4973758;28;20226;-77
2023/05/11 05:42:17;;;;;;;21.33;14.33;;;;;;;11.81;100.00;99015.53;4969656;28;20328;-78
2023/05/11 05:44:48;;;;;;;20.53;13.50;;;;;;;11.97;100.00;99026.75;4969473;28;20279;-78
2023/05/11 05:47:20;;;;;;;22.77;13.43;;;;;;;11.90;100.00;99025.50;4970988;28;20207;-78
2023/05/11 05:49:50;;;;;;;23.50;13.77;;;;;;;11.88;100.00;99014.16;4969166;28;20622;-77
2023/05/11 05:52:23;;;;;;;23.20;13.23;;;;;;;12.10;100.00;99015.25;4969928;28;20207;-78
2023/05/11 05:54:54;;;;;;;21.40;13.53;;;;;;;12.35;100.00;99015.13;4973551;28;20206;-78
2023/05/11 05:57:23;;;;;;;22.07;14.07;;;;;;;12.25;100.00;99012.31;4964120;28;20207;-78
2023/05/11 05:59:52;;;;;;;23.67;13.53;;;;;;;12.16;100.00;99013.00;4970019;28;20310;-78
2023/05/11 06:02:20;;;;;;;21.97;14.07;;;;;;;12.47;100.00;99016.06;4970352;28;20223;-78
2023/05/11 06:04:49;;;;;;;19.27;13.27;;;;;;;12.58;100.00;99019.59;4965671;28;20204;-78
2023/05/11 06:07:18;;;;;;;21.57;13.30;;;;;;;12.76;100.00;99024.50;4953246;28;20206;-78
2023/05/11 06:09:46;;;;;;;22.03;13.83;;;;;;;12.81;100.00;99012.56;4966342;28;20199;-78
2023/05/11 06:12:18;;;;;;;20.43;13.73;;;;;;;12.19;100.00;99011.94;4966786;28;20199;-78
2023/05/11 06:14:47;;;;;;;20.90;13.90;;;;;;;12.55;100.00;99008.38;4955365;28;20215;-78
2023/05/11 06:17:16;;;;;;;20.50;13.43;;;;;;;12.74;100.00;99003.38;4973997;28;20200;-78
2023/05/11 06:19:48;;;;;;;20.03;13.27;;;;;;;12.73;100.00;99004.31;4970591;28;20218;-78
2023/05/11 06:22:17;;;;;;;21.30;13.60;;;;;;;12.92;100.00;99002.91;4971053;28;20200;-78
2023/05/11 06:24:47;;;;;;;18.37;13.60;;;;;;;12.80;100.00;98997.56;4969319;28;20648;-79
2023/05/11 06:27:18;;;;;;;18.27;13.40;;;;;;;13.05;100.00;99003.69;4974049;28;20191;-78
2023/05/11 06:29:47;;;;;;;20.10;14.63;;;;;;;13.07;100.00;98993.78;4976639;28;20206;-78
2023/05/11 06:32:15;;;;;;;19.40;14.03;;;;;;;13.22;100.00;98983.78;4973366;28;20195;-78
2023/05/11 06:34:44;;;;;;;17.37;13.13;;;;;;;13.26;100.00;98980.78;4970801;28;20286;-78
2023/05/11 06:37:15;;;;;;;16.33;13.43;;;;;;;13.24;100.00;98977.41;4966024;28;20203;-79
2023/05/11 06:39:45;;;;;;;18.97;12.73;;;;;;;13.26;100.00;98969.31;4965470;28;20212;-78
2023/05/11 06:42:14;;;;;;;14.33;11.87;;;;;;;13.29;100.00;98964.56;4967626;28;20202;-79
2023/05/11 06:44:44;;;;;;;14.90;11.83;;;;;;;13.29;100.00;98966.41;4967563;28;20223;-77
2023/05/11 06:47:13;;;;;;;18.43;13.23;;;;;;;13.29;100.00;98963.72;4973254;28;20698;-78
2023/05/11 06:49:43;;;;;;;15.67;12.60;;;;;;;13.25;100.00;98951.66;4967791;28;20270;-78
2023/05/11 06:52:11;;;;;;;18.43;12.73;;;;;;;12.82;100.00;98957.59;4971083;28;20199;-78
2023/05/11 06:54:40;;;;;;;16.33;13.07;;;;;;;13.09;100.00;98955.47;4971233;28;20247;-78
2023/05/11 06:57:12;;;;;;;17.30;13.17;;;;;;;13.27;100.00;98955.88;4971939;28;20287;-78
2023/05/11 06:59:42;;;;;;;15.47;13.17;;;;;;;13.32;100.00;98956.38;4971984;28;20223;-78
2023/05/11 07:02:15;;;;;;;16.17;12.90;;;;;;;13.36;100.00;98949.00;4974498;28;20227;-78
2023/05/11 07:04:45;;;;;;;19.23;13.33;;;;;;;13.35;100.00;98955.28;4974985;28;20203;-78
2023/05/11 07:07:13;;;;;;;20.13;14.23;;;;;;;13.38;100.00;98955.03;4969365;28;20647;-78
2023/05/11 07:09:43;;;;;;;18.80;13.03;;;;;;;13.43;100.00;98956.38;4968415;28;20199;-78
2023/05/11 07:12:12;;;;;;;15.60;12.53;;;;;;;13.44;100.00;98950.09;4970593;28;20208;-78
2023/05/11 07:14:40;;;;;;;21.27;14.87;;;;;;;13.60;100.00;98948.84;4972766;28;20203;-78
2023/05/11 07:17:09;;;;;;;21.07;15.00;;;;;;;12.91;100.00;98948.91;4971076;28;20223;-79
2023/05/11 07:19:39;;;;;;;17.90;14.17;;;;;;;13.25;100.00;98952.50;4976891;28;20731;-78
2023/05/11 07:22:10;;;;;;;16.47;13.30;;;;;;;13.10;100.00;98956.31;4969427;28;20219;-78
2023/05/11 07:24:42;;;;;;;18.90;14.10;;;;;;;13.30;100.00;98952.13;4967146;28;20199;-78
2023/05/11 07:27:11;;;;;;;20.00;14.57;;;;;;;13.42;100.00;98953.84;4970950;28;20283;-78
2023/05/11 07:29:40;;;;;;;23.37;15.57;;;;;;;13.26;100.00;98961.31;4971163;28;20199;-78
2023/05/11 07:32:08;;;;;;;19.40;14.70;;;;;;;13.30;100.00;98947.66;4966729;28;20735;-78
2023/05/11 07:34:39;;;;;;;21.73;14.90;;;;;;;13.55;100.00;98953.72;4974060;28;20207;-78
2023/05/11 07:37:10;;;;;;;18.43;13.47;;;;;;;13.60;100.00;98959.50;4969062;28;20460;-78
2023/05/11 07:39:39;;;;;;;17.83;13.63;;;;;;;13.65;100.00;98955.50;4912819;29;20202;-79
2023/05/11 07:42:09;;;;;;;18.00;13.90;;;;;;;13.66;100.00;98948.38;4915462;29;20222;-78
2023/05/11 07:44:38;;;;;;;19.00;13.57;;;;;;;13.67;100.00;98937.59;4910850;29;20198;-78
2023/05/11 07:47:06;;;;;;;16.63;13.23;;;;;;;13.69;100.00;98945.44;4913008;29;20229;-78
2023/05/11 07:49:36;;;;;;;16.57;13.00;;;;;;;13.66;100.00;98948.38;4911042;29;20210;-78
2023/05/11 07:52:12;;;;;;;20.70;14.57;;;;;;;13.80;100.00;98940.13;4910432;29;20201;-78
2023/05/11 07:54:43;;;;;;;20.17;12.67;;;;;;;13.87;100.00;98932.47;4915150;29;20259;-78
2023/05/11 07:57:13;;;;;;;18.40;13.37;;;;;;;13.72;100.00;98935.44;4915421;29;20193;-78
2023/05/11 07:59:44;;;;;;;16.93;12.17;;;;;;;13.81;100.00;98936.50;4911444;29;20194;-78
2023/05/11 08:02:14;;;;;;;15.07;12.07;;;;;;;13.90;100.00;98937.56;4912274;29;20276;-78
2023/05/11 08:04:42;;;;;;;19.07;14.17;;;;;;;13.95;100.00;98930.03;4914149;29;20194;-78
2023/05/11 08:07:13;;;;;;;17.43;13.20;;;;;;;13.67;100.00;98936.75;4909648;29;20201;-79
2023/05/11 08:09:42;;;;;;;16.57;12.87;;;;;;;13.93;100.00;98932.84;4914022;28;20298;-78
2023/05/11 08:12:12;;;;;;;15.13;11.90;;;;;;;13.66;100.00;98938.56;4973736;28;20275;-78
2023/05/11 08:14:43;;;;;;;18.20;15.17;;;;;;;13.00;100.00;98934.06;4969918;28;20679;-77
2023/05/11 08:17:11;;;;;;;15.90;12.23;;;;;;;13.31;100.00;98944.03;4968445;28;20282;-78
2023/05/11 08:19:42;;;;;;;19.37;14.60;;;;;;;12.72;100.00;98948.63;4967567;28;20235;-78
2023/05/11 08:22:14;;;;;;;17.70;13.43;;;;;;;13.01;100.00;98949.03;4969100;28;20447;-78
2023/05/11 08:24:43;;;;;;;16.77;13.77;;;;;;;13.13;100.00;98951.63;4965696;28;20690;-78
2023/05/11 08:27:14;;;;;;;20.53;13.77;;;;;;;13.46;100.00;98950.81;4971808;28;20214;-78
2023/05/11 08:29:42;;;;;;;20.27;14.27;;;;;;;13.68;100.00;98949.94;4971502;28;20231;-78
2023/05/11 08:32:12;;;;;;;17.87;13.50;;;;;;;13.77;100.00;98950.16;4969727;28;20658;-78
2023/05/11 08:34:42;;;;;;;16.73;14.93;;;;;;;13.78;100.00;98946.53;4970213;28;20196;-78
2023/05/11 08:37:12;;;;;;;18.00;12.73;;;;;;;14.01;100.00;98941.06;4969737;28;20204;-78
2023/05/11 08:39:43;;;;;;;17.73;12.27;;;;;;;14.31;100.00;98936.84;4967268;28;20247;-79
2023/05/11 08:42:17;;;;;;;18.80;12.50;;;;;;;14.41;100.00;98936.91;4968952;28;20212;-79
2023/05/11 08:44:47;;;;;;;16.30;13.50;;;;;;;14.15;100.00;98933.75;4974331;28;20726;-77
2023/05/11 08:47:17;;;;;;;15.57;12.13;;;;;;;14.32;100.00;98931.38;4963329;28;20195;-78
2023/05/11 08:49:51;;;;;;;15.93;12.20;;;;;;;14.29;100.00;98922.81;4972925;28;20199;-78
2023/05/11 08:52:21;;;;;;;17.30;12.23;;;;;;;14.47;100.00;98923.09;4969813;28;20227;-79
2023/05/11 08:54:54;;;;;;;16.40;11.80;;;;;;;14.21;100.00;98925.25;4971366;28;20224;-78
2023/05/11 08:57:24;;;;;;;14.33;11.50;;;;;;;14.20;100.00;98919.06;4974004;28;20239;-78
2023/05/11 08:59:55;;;;;;;18.73;12.50;;;;;;;14.24;100.00;98922.31;4970555;28;20311;-78
2023/05/11 09:02:25;;;;;;;14.30;11.10;;;;;;;14.51;100.00;98927.22;4969558;28;20321;-79
2023/05/11 09:04:55;;;;;;;14.60;11.63;;;;;;;14.82;100.00;98920.97;4971868;28;20388;-78
2023/05/11 09:07:25;;;;;;;16.63;11.97;;;;;;;14.26;100.00;98929.22;4968871;28;20203;-78
2023/05/11 09:09:56;;;;;;;18.27;15.40;;;;;;;14.27;100.00;98920.25;4971655;28;20203;-79
2023/05/11 09:12:27;;;;;;;16.00;11.10;;;;;;;14.68;100.00;98921.31;4966956;28;20208;-78
2023/05/11 09:14:56;;;;;;;14.97;11.60;;;;;;;14.69;100.00;98917.66;4940730;28;20199;-79
2023/05/11 09:17:29;;;;;;;15.83;12.80;;;;;;;14.04;100.00;98929.28;4970214;28;20203;-78
2023/05/11 09:20:00;;;;;;;20.70;15.27;;;;;;;14.44;100.00;98924.16;4969603;28;20214;-78
2023/05/11 09:22:29;;;;;;;14.60;11.73;;;;;;;14.73;100.00;98918.25;4969931;28;20215;-79
2023/05/11 09:25:04;;;;;;;15.93;11.53;;;;;;;14.75;100.00;98919.78;4970251;28;20206;-78
2023/05/11 09:27:33;;;;;;;15.07;11.53;;;;;;;14.31;100.00;98916.38;4970749;28;20207;-79
2023/05/11 09:30:12;;;;;;;14.20;11.37;;;;;;;14.64;100.00;98924.34;4970726;28;20200;-78
2023/05/11 09:32:47;;;;;;;14.90;11.57;;;;;;;14.91;100.00;98916.66;4973578;28;20690;-78
2023/05/11 09:35:20;;;;;;;13.57;11.43;;;;;;;14.84;100.00;98916.34;4962657;28;20203;-79
2023/05/11 09:38:03;;;;;;;17.73;11.93;;;;;;;14.90;100.00;98912.31;4964477;28;20230;-79
2023/05/11 09:40:39;;;;;;;14.10;11.37;;;;;;;15.20;100.00;98910.66;4965896;28;20227;-79
2023/05/11 09:43:18;;;;;;;15.00;10.77;;;;;;;15.36;100.00;98903.84;4968086;28;20219;-79
2023/05/11 09:45:50;;;;;;;15.70;10.87;;;;;;;15.00;100.00;98907.03;4970430;28;20231;-78
2023/05/11 09:48:28;;;;;;;13.17;10.67;;;;;;;15.20;100.00;98906.16;4965930;28;20570;-78
2023/05/11 09:51:04;;;;;;;13.93;10.77;;;;;;;15.09;100.00;98908.91;4956673;28;20214;-79
2023/05/11 09:53:44;;;;;;;15.03;12.77;;;;;;;14.77;100.00;98911.69;4970654;28;20199;-78
2023/05/11 09:56:21;;;;;;;15.20;12.67;;;;;;;14.83;100.00;98908.47;4974400;28;20208;-79
2023/05/11 09:58:56;;;;;;;15.30;11.00;;;;;;;14.48;100.00;98907.00;4970261;28;20253;-78
2023/05/11 10:01:31;;;;;;;17.73;15.73;;;;;;;14.69;100.00;98909.66;4976212;28;20286;-78
2023/05/11 10:04:07;;;;;;;13.53;10.97;;;;;;;15.27;100.00;98901.13;4973372;28;20223;-79
2023/05/11 10:06:54;;;;;;;13.73;11.60;;;;;;;15.70;100.00;98895.53;4976973;28;20214;-79
2023/05/11 10:09:27;;;;;;;13.10;10.57;;;;;;;15.70;100.00;98884.84;4974337;28;20206;-79
2023/05/11 10:12:03;;;;;;;13.10;11.13;;;;;;;15.81;100.00;98878.53;4974222;28;20211;-79
2023/05/11 10:14:35;;;;;;;13.90;10.90;;;;;;;16.38;100.00;98884.91;4974586;28;20282;-79
2023/05/11 10:17:07;;;;;;;14.70;10.17;;;;;;;15.97;100.00;98876.19;4969453;28;20725;-79
2023/05/11 10:19:37;;;;;;;15.87;10.53;;;;;;;15.60;100.00;98879.50;4973500;28;20198;-78
2023/05/11 10:22:08;;;;;;;13.43;9.87;;;;;;;16.14;100.00;98878.16;4973122;28;20203;-79
2023/05/11 10:24:42;;;;;;;11.80;9.70;;;;;;;16.38;100.00;98874.22;4976878;28;20251;-79
2023/05/11 10:27:16;;;;;;;15.63;12.33;;;;;;;16.18;100.00;98863.53;4966403;28;20206;-79
2023/05/11 10:29:49;;;;;;;10.40;8.77;;;;;;;16.67;100.00;98867.00;4967637;28;20206;-79
2023/05/11 10:32:21;;;;;;;10.53;8.87;;;;;;;16.92;100.00;98856.69;4971010;28;20200;-79
2023/05/11 10:34:52;;;;;;;12.03;8.70;;;;;;;17.13;100.00;98860.84;4969762;28;20203;-79
2023/05/11 10:37:24;;;;;;;10.37;7.80;;;;;;;17.31;100.00;98860.06;4976322;28;20267;-79
2023/05/11 10:39:55;;;;;;;10.30;9.27;;;;;;;17.27;100.00;98864.84;4973520;28;20204;-79
2023/05/11 10:43:05;;;;;;;11.20;9.23;;;;;;;17.36;100.00;98850.59;4973306;28;20224;-79
2023/05/11 10:45:47;;;;;;;12.80;8.50;;;;;;;17.58;100.00;98851.19;4975744;28;20211;-79
2023/05/11 10:48:52;;;;;;;11.27;7.63;;;;;;;17.39;100.00;98839.59;4973936;28;20211;-79
2023/05/11 10:51:39;;;;;;;11.53;10.23;;;;;;;17.07;100.00;98844.50;4959456;28;20723;-79
2023/05/11 10:54:36;;;;;;;12.23;9.30;;;;;;;16.80;100.00;98846.19;4971718;28;20685;-79
2023/05/11 10:57:36;;;;;;;12.30;9.23;;;;;;;17.30;100.00;98845.84;4971346;28;20247;-79
2023/05/11 11:01:10;;;;;;;9.73;8.70;;;;;;;17.34;100.00;98841.03;4969128;28;20677;-79
2023/05/11 11:03:56;;;;;;;10.03;8.23;;;;;;;17.68;100.00;98836.75;4972553;28;20238;-79
2023/05/11 11:06:28;;;;;;;9.30;7.57;;;;;;;17.76;100.00;98833.34;4972729;28;20239;-80
2023/05/11 11:09:00;;;;;;;9.40;7.40;;;;;;;18.01;100.00;98835.25;4978899;28;20188;-79
2023/05/11 11:11:35;;;;;;;10.40;7.40;;;;;;;17.77;100.00;98835.03;4972844;28;20215;-79
2023/05/11 11:14:11;;;;;;;10.70;7.27;;;;;;;17.59;100.00;98834.13;4978997;28;20666;-77
2023/05/11 11:16:42;;;;;;;15.50;7.50;;;;;;;17.05;100.00;98836.66;4973712;28;20299;-79
2023/05/11 11:19:40;;;;;;;8.70;7.33;;;;;;;17.28;100.00;98831.78;4979554;28;20206;-79
2023/05/11 11:22:45;;;;;;;8.53;7.57;;;;;;;16.94;100.00;98838.66;4977939;28;20663;-78
2023/05/11 11:25:38;;;;;;;10.83;8.00;;;;;;;16.98;100.00;98846.25;4969384;28;20655;-78
2023/05/11 11:28:11;;;;;;;12.13;9.03;;;;;;;16.64;100.00;98843.22;4975514;28;20247;-79
2023/05/11 11:30:46;;;;;;;11.23;9.20;;;;;;;16.83;100.00;98845.03;4972966;28;20198;-79
2023/05/11 11:33:36;;;;;;;11.60;8.77;;;;;;;16.87;100.00;98843.75;4968384;28;20418;-79
2023/05/11 11:36:11;;;;;;;13.93;9.40;;;;;;;16.88;100.00;98846.28;4972326;28;20566;-78